sensor_id;sensor_type;location;lat;lon;timestamp;temperature;humidity
21770;DHT22;11046;49.558;8.674;2022-11-21T00:02:19;6.00;99.90
21770;DHT22;11046;49.558;8.674;2022-11-21T00:05:19;6.00;99.90
21770;DHT22;11046;49.558;8.674;2022-11-21T00:08:20;6.00;99.90
21770;DHT22;11046;49.558;8.674;2022-11-21T00:11:21;6.00;99.90
21770;DHT22;11046;49.558;8.674;2022-11-21T00:14:22;6.00;99.90
21770;DHT22;11046;49.558;8.674;2022-11-21T00:17:22;6.00;99.90
21770;DHT22;11046;49.558;8.674;2022-11-21T00:20:23;6.00;99.90
21770;DHT22;11046;49.558;8.674;2022-11-21T00:23:23;6.10;99.90
21770;DHT22;11046;49.558;8.674;2022-11-21T00:26:27;6.10;99.90
21770;DHT22;11046;49.558;8.674;2022-11-21T00:29:28;6.00;99.90
21770;DHT22;11046;49.558;8.674;2022-11-21T00:32:28;6.00;99.90
21770;DHT22;11046;49.558;8.674;2022-11-21T00:35:29;6.00;99.90
21770;DHT22;11046;49.558;8.674;2022-11-21T00:38:30;6.00;99.90
21770;DHT22;11046;49.558;8.674;2022-11-21T00:41:31;6.00;99.90
21770;DHT22;11046;49.558;8.674;2022-11-21T00:44:31;6.00;99.90
21770;DHT22;11046;49.558;8.674;2022-11-21T00:47:32;5.90;99.90
21770;DHT22;11046;49.558;8.674;2022-11-21T00:50:33;6.00;99.90
21770;DHT22;11046;49.558;8.674;2022-11-21T00:53:33;6.00;99.90
21770;DHT22;11046;49.558;8.674;2022-11-21T00:56:34;6.00;99.90
21770;DHT22;11046;49.558;8.674;2022-11-21T00:59:34;6.10;99.90
21770;DHT22;11046;49.558;8.674;2022-11-21T01:02:35;6.00;99.90
21770;DHT22;11046;49.558;8.674;2022-11-21T01:05:36;6.00;99.90
21770;DHT22;11046;49.558;8.674;2022-11-21T01:08:38;6.00;99.90
21770;DHT22;11046;49.558;8.674;2022-11-21T01:11:39;6.10;99.90
21770;DHT22;11046;49.558;8.674;2022-11-21T01:14:39;6.00;99.90
21770;DHT22;11046;49.558;8.674;2022-11-21T01:17:40;6.00;99.90
21770;DHT22;11046;49.558;8.674;2022-11-21T01:20:41;6.00;99.90
21770;DHT22;11046;49.558;8.674;2022-11-21T01:23:42;6.00;99.90
21770;DHT22;11046;49.558;8.674;2022-11-21T01:26:43;6.00;99.90
21770;DHT22;11046;49.558;8.674;2022-11-21T01:29:43;6.00;99.90
21770;DHT22;11046;49.558;8.674;2022-11-21T01:32:47;5.90;99.90
21770;DHT22;11046;49.558;8.674;2022-11-21T01:35:48;5.90;99.90
21770;DHT22;11046;49.558;8.674;2022-11-21T01:38:51;5.90;99.90
21770;DHT22;11046;49.558;8.674;2022-11-21T01:41:52;5.90;99.90
21770;DHT22;11046;49.558;8.674;2022-11-21T01:44:53;5.90;99.90
21770;DHT22;11046;49.558;8.674;2022-11-21T01:47:54;5.80;99.90
21770;DHT22;11046;49.558;8.674;2022-11-21T01:50:57;5.70;99.90
21770;DHT22;11046;49.558;8.674;2022-11-21T01:57:21;5.60;99.90
21770;DHT22;11046;49.558;8.674;2022-11-21T02:00:24;5.70;99.90
21770;DHT22;11046;49.558;8.674;2022-11-21T02:03:28;5.70;99.90
21770;DHT22;11046;49.558;8.674;2022-11-21T02:06:31;5.70;99.90
21770;DHT22;11046;49.558;8.674;2022-11-21T02:09:35;5.70;99.90
21770;DHT22;11046;49.558;8.674;2022-11-21T02:15:43;5.70;99.90
21770;DHT22;11046;49.558;8.674;2022-11-21T02:18:43;5.70;99.90
21770;DHT22;11046;49.558;8.674;2022-11-21T02:21:53;5.70;99.90
21770;DHT22;11046;49.558;8.674;2022-11-21T02:28:07;5.70;99.90
21770;DHT22;11046;49.558;8.674;2022-11-21T02:31:08;5.70;99.90
21770;DHT22;11046;49.558;8.674;2022-11-21T02:34:09;5.70;99.90
21770;DHT22;11046;49.558;8.674;2022-11-21T02:37:09;5.80;99.90
21770;DHT22;11046;49.558;8.674;2022-11-21T02:40:21;5.70;99.90
21770;DHT22;11046;49.558;8.674;2022-11-21T02:43:28;5.70;99.90
21770;DHT22;11046;49.558;8.674;2022-11-21T02:46:33;5.70;99.90
21770;DHT22;11046;49.558;8.674;2022-11-21T02:49:40;5.80;99.90
21770;DHT22;11046;49.558;8.674;2022-11-21T02:52:41;5.80;99.90
21770;DHT22;11046;49.558;8.674;2022-11-21T02:55:42;5.80;99.90
21770;DHT22;11046;49.558;8.674;2022-11-21T02:58:43;5.90;99.90
21770;DHT22;11046;49.558;8.674;2022-11-21T03:01:44;5.90;99.90
21770;DHT22;11046;49.558;8.674;2022-11-21T03:04:44;5.90;99.90
21770;DHT22;11046;49.558;8.674;2022-11-21T03:07:46;5.90;99.90
21770;DHT22;11046;49.558;8.674;2022-11-21T03:10:46;6.00;99.90
21770;DHT22;11046;49.558;8.674;2022-11-21T03:13:47;6.00;99.90
21770;DHT22;11046;49.558;8.674;2022-11-21T03:16:47;6.00;99.90
21770;DHT22;11046;49.558;8.674;2022-11-21T03:19:48;6.00;99.90
21770;DHT22;11046;49.558;8.674;2022-11-21T03:22:49;6.00;99.90
21770;DHT22;11046;49.558;8.674;2022-11-21T03:25:49;6.10;99.90
21770;DHT22;11046;49.558;8.674;2022-11-21T03:28:50;6.00;99.90
21770;DHT22;11046;49.558;8.674;2022-11-21T03:31:51;6.00;99.90
21770;DHT22;11046;49.558;8.674;2022-11-21T03:34:51;6.10;99.90
21770;DHT22;11046;49.558;8.674;2022-11-21T03:37:52;6.10;99.90
21770;DHT22;11046;49.558;8.674;2022-11-21T03:40:53;6.10;99.90
21770;DHT22;11046;49.558;8.674;2022-11-21T03:44:02;6.00;99.90
21770;DHT22;11046;49.558;8.674;2022-11-21T03:47:03;6.00;99.90
21770;DHT22;11046;49.558;8.674;2022-11-21T03:50:04;5.90;99.90
21770;DHT22;11046;49.558;8.674;2022-11-21T03:53:05;5.90;99.90
21770;DHT22;11046;49.558;8.674;2022-11-21T03:56:05;6.00;99.90
21770;DHT22;11046;49.558;8.674;2022-11-21T03:59:06;6.00;99.90
21770;DHT22;11046;49.558;8.674;2022-11-21T04:02:07;6.00;99.90
21770;DHT22;11046;49.558;8.674;2022-11-21T04:05:07;6.00;99.90
21770;DHT22;11046;49.558;8.674;2022-11-21T04:08:08;6.10;99.90
21770;DHT22;11046;49.558;8.674;2022-11-21T04:11:09;6.10;99.90
21770;DHT22;11046;49.558;8.674;2022-11-21T04:14:10;6.00;99.90
21770;DHT22;11046;49.558;8.674;2022-11-21T04:17:11;6.00;99.90
21770;DHT22;11046;49.558;8.674;2022-11-21T04:20:11;6.00;99.90
21770;DHT22;11046;49.558;8.674;2022-11-21T04:23:12;6.00;99.90
21770;DHT22;11046;49.558;8.674;2022-11-21T04:26:13;6.00;99.90
21770;DHT22;11046;49.558;8.674;2022-11-21T04:29:13;6.00;99.90
21770;DHT22;11046;49.558;8.674;2022-11-21T04:32:14;6.00;99.90
21770;DHT22;11046;49.558;8.674;2022-11-21T04:35:15;6.00;99.90
21770;DHT22;11046;49.558;8.674;2022-11-21T04:38:15;6.00;99.90
21770;DHT22;11046;49.558;8.674;2022-11-21T04:41:16;5.90;99.90
21770;DHT22;11046;49.558;8.674;2022-11-21T04:44:16;5.90;99.90
21770;DHT22;11046;49.558;8.674;2022-11-21T04:47:17;5.90;99.90
21770;DHT22;11046;49.558;8.674;2022-11-21T04:50:18;6.00;99.90
21770;DHT22;11046;49.558;8.674;2022-11-21T04:53:19;5.90;99.90
21770;DHT22;11046;49.558;8.674;2022-11-21T04:56:19;5.90;99.90
21770;DHT22;11046;49.558;8.674;2022-11-21T04:59:20;5.90;99.90
21770;DHT22;11046;49.558;8.674;2022-11-21T05:02:20;5.90;99.90
21770;DHT22;11046;49.558;8.674;2022-11-21T05:05:21;6.00;99.90
21770;DHT22;11046;49.558;8.674;2022-11-21T05:08:21;5.90;99.90
21770;DHT22;11046;49.558;8.674;2022-11-21T05:11:22;5.90;99.90
21770;DHT22;11046;49.558;8.674;2022-11-21T05:14:41;5.90;99.90
21770;DHT22;11046;49.558;8.674;2022-11-21T05:17:42;5.90;99.90
21770;DHT22;11046;49.558;8.674;2022-11-21T05:20:42;6.00;99.90
21770;DHT22;11046;49.558;8.674;2022-11-21T05:23:43;6.00;99.90
21770;DHT22;11046;49.558;8.674;2022-11-21T05:26:43;6.00;99.90
21770;DHT22;11046;49.558;8.674;2022-11-21T05:29:44;6.00;99.90
21770;DHT22;11046;49.558;8.674;2022-11-21T05:32:45;6.00;99.90
21770;DHT22;11046;49.558;8.674;2022-11-21T05:35:45;6.00;99.90
21770;DHT22;11046;49.558;8.674;2022-11-21T05:38:46;6.10;99.90
21770;DHT22;11046;49.558;8.674;2022-11-21T05:41:47;6.10;99.90
21770;DHT22;11046;49.558;8.674;2022-11-21T05:44:47;6.10;99.90
21770;DHT22;11046;49.558;8.674;2022-11-21T05:47:48;6.10;99.90
21770;DHT22;11046;49.558;8.674;2022-11-21T05:50:49;6.10;99.90
21770;DHT22;11046;49.558;8.674;2022-11-21T05:53:49;6.10;99.90
21770;DHT22;11046;49.558;8.674;2022-11-21T05:56:50;6.00;99.90
21770;DHT22;11046;49.558;8.674;2022-11-21T05:59:50;6.10;99.90
21770;DHT22;11046;49.558;8.674;2022-11-21T06:02:51;6.10;99.90
21770;DHT22;11046;49.558;8.674;2022-11-21T06:06:13;6.10;99.90
21770;DHT22;11046;49.558;8.674;2022-11-21T06:09:13;6.10;99.90
21770;DHT22;11046;49.558;8.674;2022-11-21T06:12:14;6.10;99.90
21770;DHT22;11046;49.558;8.674;2022-11-21T06:15:14;6.00;99.90
21770;DHT22;11046;49.558;8.674;2022-11-21T06:18:16;6.10;99.90
21770;DHT22;11046;49.558;8.674;2022-11-21T06:24:18;6.10;99.90
21770;DHT22;11046;49.558;8.674;2022-11-21T06:27:18;6.10;99.90
21770;DHT22;11046;49.558;8.674;2022-11-21T06:30:19;6.20;99.90
21770;DHT22;11046;49.558;8.674;2022-11-21T06:33:19;6.20;99.90
21770;DHT22;11046;49.558;8.674;2022-11-21T06:36:20;6.20;99.90
21770;DHT22;11046;49.558;8.674;2022-11-21T06:39:21;6.10;99.90
21770;DHT22;11046;49.558;8.674;2022-11-21T06:42:21;6.10;99.90
21770;DHT22;11046;49.558;8.674;2022-11-21T06:45:22;6.10;99.90
21770;DHT22;11046;49.558;8.674;2022-11-21T06:48:23;6.10;99.90
21770;DHT22;11046;49.558;8.674;2022-11-21T06:51:24;6.10;99.90
21770;DHT22;11046;49.558;8.674;2022-11-21T06:54:25;6.10;99.90
21770;DHT22;11046;49.558;8.674;2022-11-21T06:57:26;6.10;99.90
21770;DHT22;11046;49.558;8.674;2022-11-21T07:00:26;6.20;99.90
21770;DHT22;11046;49.558;8.674;2022-11-21T07:03:30;6.20;99.90
21770;DHT22;11046;49.558;8.674;2022-11-21T07:06:30;6.20;99.90
21770;DHT22;11046;49.558;8.674;2022-11-21T07:09:31;6.20;99.90
21770;DHT22;11046;49.558;8.674;2022-11-21T07:12:34;6.20;99.90
21770;DHT22;11046;49.558;8.674;2022-11-21T07:15:59;6.30;99.90
21770;DHT22;11046;49.558;8.674;2022-11-21T07:18:59;6.30;99.90
21770;DHT22;11046;49.558;8.674;2022-11-21T07:22:00;6.40;99.90
21770;DHT22;11046;49.558;8.674;2022-11-21T07:25:00;6.40;99.90
21770;DHT22;11046;49.558;8.674;2022-11-21T07:28:02;6.30;99.90
21770;DHT22;11046;49.558;8.674;2022-11-21T07:31:03;6.30;99.90
21770;DHT22;11046;49.558;8.674;2022-11-21T07:34:03;6.40;99.90
21770;DHT22;11046;49.558;8.674;2022-11-21T07:37:04;6.40;99.90
21770;DHT22;11046;49.558;8.674;2022-11-21T07:40:07;6.40;99.90
21770;DHT22;11046;49.558;8.674;2022-11-21T07:43:09;6.40;99.90
21770;DHT22;11046;49.558;8.674;2022-11-21T07:46:10;6.40;99.90
21770;DHT22;11046;49.558;8.674;2022-11-21T07:49:10;6.40;99.90
21770;DHT22;11046;49.558;8.674;2022-11-21T07:52:11;6.40;99.90
21770;DHT22;11046;49.558;8.674;2022-11-21T07:55:11;6.40;99.90
21770;DHT22;11046;49.558;8.674;2022-11-21T07:58:14;6.50;99.90
21770;DHT22;11046;49.558;8.674;2022-11-21T08:01:15;6.50;99.90
21770;DHT22;11046;49.558;8.674;2022-11-21T08:04:16;6.50;99.90
21770;DHT22;11046;49.558;8.674;2022-11-21T08:07:18;6.50;99.90
21770;DHT22;11046;49.558;8.674;2022-11-21T08:10:19;6.50;99.90
21770;DHT22;11046;49.558;8.674;2022-11-21T08:13:20;6.50;99.90
21770;DHT22;11046;49.558;8.674;2022-11-21T08:16:21;6.50;99.90
21770;DHT22;11046;49.558;8.674;2022-11-21T08:19:23;6.50;99.90
21770;DHT22;11046;49.558;8.674;2022-11-21T08:22:24;6.60;99.90
21770;DHT22;11046;49.558;8.674;2022-11-21T08:25:25;6.60;99.90
21770;DHT22;11046;49.558;8.674;2022-11-21T08:28:25;6.60;99.90
21770;DHT22;11046;49.558;8.674;2022-11-21T08:31:26;6.60;99.90
21770;DHT22;11046;49.558;8.674;2022-11-21T08:34:29;6.60;99.90
21770;DHT22;11046;49.558;8.674;2022-11-21T08:37:30;6.60;99.90
21770;DHT22;11046;49.558;8.674;2022-11-21T08:40:32;6.60;99.90
21770;DHT22;11046;49.558;8.674;2022-11-21T08:43:32;6.60;99.90
21770;DHT22;11046;49.558;8.674;2022-11-21T08:46:34;6.60;99.90
21770;DHT22;11046;49.558;8.674;2022-11-21T08:49:36;6.60;99.90
21770;DHT22;11046;49.558;8.674;2022-11-21T08:52:37;6.60;99.90
21770;DHT22;11046;49.558;8.674;2022-11-21T08:55:37;6.70;99.90
21770;DHT22;11046;49.558;8.674;2022-11-21T08:58:38;6.70;99.90
21770;DHT22;11046;49.558;8.674;2022-11-21T09:01:39;6.80;99.90
21770;DHT22;11046;49.558;8.674;2022-11-21T09:04:39;6.80;99.90
21770;DHT22;11046;49.558;8.674;2022-11-21T09:07:40;6.80;99.90
21770;DHT22;11046;49.558;8.674;2022-11-21T09:10:41;6.90;99.90
21770;DHT22;11046;49.558;8.674;2022-11-21T09:13:41;7.00;99.90
21770;DHT22;11046;49.558;8.674;2022-11-21T09:16:42;7.10;99.90
21770;DHT22;11046;49.558;8.674;2022-11-21T09:20:01;7.10;99.90
21770;DHT22;11046;49.558;8.674;2022-11-21T09:23:10;7.10;99.90
21770;DHT22;11046;49.558;8.674;2022-11-21T09:26:11;7.10;99.90
21770;DHT22;11046;49.558;8.674;2022-11-21T09:29:12;7.10;99.90
21770;DHT22;11046;49.558;8.674;2022-11-21T09:32:14;7.10;99.90
21770;DHT22;11046;49.558;8.674;2022-11-21T09:35:15;7.10;99.90
21770;DHT22;11046;49.558;8.674;2022-11-21T09:38:15;7.10;99.90
21770;DHT22;11046;49.558;8.674;2022-11-21T09:41:25;7.10;99.90
21770;DHT22;11046;49.558;8.674;2022-11-21T09:45:12;7.20;99.90
21770;DHT22;11046;49.558;8.674;2022-11-21T09:48:42;7.20;99.90
21770;DHT22;11046;49.558;8.674;2022-11-21T09:51:40;7.40;99.90
21770;DHT22;11046;49.558;8.674;2022-11-21T09:54:49;7.50;99.90
21770;DHT22;11046;49.558;8.674;2022-11-21T09:57:50;7.60;99.90
21770;DHT22;11046;49.558;8.674;2022-11-21T10:00:52;7.80;99.90
21770;DHT22;11046;49.558;8.674;2022-11-21T10:03:53;7.80;99.90
21770;DHT22;11046;49.558;8.674;2022-11-21T10:07:05;7.90;99.90
21770;DHT22;11046;49.558;8.674;2022-11-21T10:10:42;8.00;99.90
21770;DHT22;11046;49.558;8.674;2022-11-21T10:17:20;8.20;99.90
21770;DHT22;11046;49.558;8.674;2022-11-21T10:20:32;8.20;99.90
21770;DHT22;11046;49.558;8.674;2022-11-21T10:27:03;8.00;99.60
21770;DHT22;11046;49.558;8.674;2022-11-21T10:30:13;8.00;99.70
21770;DHT22;11046;49.558;8.674;2022-11-21T10:33:29;8.00;99.40
21770;DHT22;11046;49.558;8.674;2022-11-21T10:36:35;8.10;99.30
21770;DHT22;11046;49.558;8.674;2022-11-21T10:39:42;8.10;99.30
21770;DHT22;11046;49.558;8.674;2022-11-21T10:43:02;8.30;99.30
21770;DHT22;11046;49.558;8.674;2022-11-21T10:46:24;8.40;98.90
21770;DHT22;11046;49.558;8.674;2022-11-21T10:49:28;8.50;99.00
21770;DHT22;11046;49.558;8.674;2022-11-21T10:52:34;8.60;99.00
21770;DHT22;11046;49.558;8.674;2022-11-21T10:55:55;8.80;98.80
21770;DHT22;11046;49.558;8.674;2022-11-21T10:58:57;8.80;98.20
21770;DHT22;11046;49.558;8.674;2022-11-21T11:02:21;9.00;98.40
21770;DHT22;11046;49.558;8.674;2022-11-21T11:05:24;9.10;97.90
21770;DHT22;11046;49.558;8.674;2022-11-21T11:08:25;9.20;97.80
21770;DHT22;11046;49.558;8.674;2022-11-21T11:11:27;9.20;97.70
21770;DHT22;11046;49.558;8.674;2022-11-21T11:14:31;9.30;98.10
21770;DHT22;11046;49.558;8.674;2022-11-21T11:17:33;9.30;97.40
21770;DHT22;11046;49.558;8.674;2022-11-21T11:20:39;9.30;97.40
21770;DHT22;11046;49.558;8.674;2022-11-21T11:23:40;9.30;97.10
21770;DHT22;11046;49.558;8.674;2022-11-21T11:29:50;9.00;96.80
21770;DHT22;11046;49.558;8.674;2022-11-21T11:32:51;8.90;96.90
21770;DHT22;11046;49.558;8.674;2022-11-21T11:35:52;9.00;97.10
21770;DHT22;11046;49.558;8.674;2022-11-21T11:38:56;9.00;96.90
21770;DHT22;11046;49.558;8.674;2022-11-21T11:42:21;9.00;96.50
21770;DHT22;11046;49.558;8.674;2022-11-21T11:45:58;9.00;96.50
21770;DHT22;11046;49.558;8.674;2022-11-21T11:49:51;9.10;96.50
21770;DHT22;11046;49.558;8.674;2022-11-21T11:53:22;9.00;96.30
21770;DHT22;11046;49.558;8.674;2022-11-21T11:56:30;8.90;96.20
21770;DHT22;11046;49.558;8.674;2022-11-21T11:59:39;8.90;96.30
21770;DHT22;11046;49.558;8.674;2022-11-21T12:03:05;8.90;96.10
21770;DHT22;11046;49.558;8.674;2022-11-21T12:06:20;8.90;96.10
21770;DHT22;11046;49.558;8.674;2022-11-21T12:09:47;8.90;96.10
21770;DHT22;11046;49.558;8.674;2022-11-21T12:13:04;8.90;96.00
21770;DHT22;11046;49.558;8.674;2022-11-21T12:16:09;8.80;96.10
21770;DHT22;11046;49.558;8.674;2022-11-21T12:19:14;8.90;95.90
21770;DHT22;11046;49.558;8.674;2022-11-21T12:22:16;8.80;96.10
21770;DHT22;11046;49.558;8.674;2022-11-21T12:25:23;8.90;96.20
21770;DHT22;11046;49.558;8.674;2022-11-21T12:28:59;9.00;96.10
21770;DHT22;11046;49.558;8.674;2022-11-21T12:32:22;9.00;95.80
21770;DHT22;11046;49.558;8.674;2022-11-21T12:35:55;9.00;95.80
21770;DHT22;11046;49.558;8.674;2022-11-21T12:42:27;9.00;96.00
21770;DHT22;11046;49.558;8.674;2022-11-21T12:46:14;9.00;95.80
21770;DHT22;11046;49.558;8.674;2022-11-21T12:49:32;9.10;95.90
21770;DHT22;11046;49.558;8.674;2022-11-21T12:53:06;9.20;95.80
21770;DHT22;11046;49.558;8.674;2022-11-21T13:03:26;9.10;95.60
21770;DHT22;11046;49.558;8.674;2022-11-21T13:06:31;9.00;95.60
21770;DHT22;11046;49.558;8.674;2022-11-21T13:09:42;9.00;95.70
21770;DHT22;11046;49.558;8.674;2022-11-21T13:16:35;9.10;95.60
21770;DHT22;11046;49.558;8.674;2022-11-21T13:25:44;9.10;95.50
21770;DHT22;11046;49.558;8.674;2022-11-21T13:28:46;9.10;95.50
21770;DHT22;11046;49.558;8.674;2022-11-21T13:31:46;9.10;95.40
21770;DHT22;11046;49.558;8.674;2022-11-21T13:34:47;9.10;95.50
21770;DHT22;11046;49.558;8.674;2022-11-21T13:40:52;9.10;95.40
21770;DHT22;11046;49.558;8.674;2022-11-21T13:47:47;9.20;95.40
21770;DHT22;11046;49.558;8.674;2022-11-21T13:54:19;9.20;95.50
21770;DHT22;11046;49.558;8.674;2022-11-21T14:06:40;9.50;95.50
21770;DHT22;11046;49.558;8.674;2022-11-21T14:09:47;9.60;95.40
21770;DHT22;11046;49.558;8.674;2022-11-21T14:12:50;9.60;95.40
21770;DHT22;11046;49.558;8.674;2022-11-21T14:16:17;9.60;95.40
21770;DHT22;11046;49.558;8.674;2022-11-21T14:19:21;9.60;95.00
21770;DHT22;11046;49.558;8.674;2022-11-21T14:22:38;9.60;95.20
21770;DHT22;11046;49.558;8.674;2022-11-21T14:28:40;9.60;95.00
21770;DHT22;11046;49.558;8.674;2022-11-21T14:31:47;9.50;94.80
21770;DHT22;11046;49.558;8.674;2022-11-21T14:34:48;9.40;94.70
21770;DHT22;11046;49.558;8.674;2022-11-21T14:37:49;9.30;94.80
21770;DHT22;11046;49.558;8.674;2022-11-21T14:41:31;9.20;94.80
21770;DHT22;11046;49.558;8.674;2022-11-21T14:44:31;9.10;94.70
21770;DHT22;11046;49.558;8.674;2022-11-21T14:47:31;8.90;95.00
21770;DHT22;11046;49.558;8.674;2022-11-21T14:50:34;8.80;95.20
21770;DHT22;11046;49.558;8.674;2022-11-21T14:53:38;8.70;95.30
21770;DHT22;11046;49.558;8.674;2022-11-21T14:56:40;8.60;95.30
21770;DHT22;11046;49.558;8.674;2022-11-21T14:59:42;8.50;95.40
21770;DHT22;11046;49.558;8.674;2022-11-21T15:02:43;8.40;95.50
21770;DHT22;11046;49.558;8.674;2022-11-21T15:05:45;8.30;95.60
21770;DHT22;11046;49.558;8.674;2022-11-21T15:08:45;8.30;95.60
21770;DHT22;11046;49.558;8.674;2022-11-21T15:11:50;8.30;95.60
21770;DHT22;11046;49.558;8.674;2022-11-21T15:15:03;8.20;95.60
21770;DHT22;11046;49.558;8.674;2022-11-21T15:18:10;8.10;95.50
21770;DHT22;11046;49.558;8.674;2022-11-21T15:21:13;8.00;95.60
21770;DHT22;11046;49.558;8.674;2022-11-21T15:24:36;7.90;95.70
21770;DHT22;11046;49.558;8.674;2022-11-21T15:27:39;7.90;95.70
21770;DHT22;11046;49.558;8.674;2022-11-21T15:30:39;7.90;95.70
21770;DHT22;11046;49.558;8.674;2022-11-21T15:34:00;7.80;95.70
21770;DHT22;11046;49.558;8.674;2022-11-21T15:37:02;7.70;95.70
21770;DHT22;11046;49.558;8.674;2022-11-21T15:40:04;7.60;95.80
21770;DHT22;11046;49.558;8.674;2022-11-21T15:43:07;7.60;96.00
21770;DHT22;11046;49.558;8.674;2022-11-21T15:46:25;7.50;96.00
21770;DHT22;11046;49.558;8.674;2022-11-21T15:49:27;7.50;96.10
21770;DHT22;11046;49.558;8.674;2022-11-21T15:52:28;7.50;96.10
21770;DHT22;11046;49.558;8.674;2022-11-21T15:55:30;7.50;96.10
21770;DHT22;11046;49.558;8.674;2022-11-21T15:58:33;7.40;96.10
21770;DHT22;11046;49.558;8.674;2022-11-21T16:01:35;7.40;96.20
21770;DHT22;11046;49.558;8.674;2022-11-21T16:04:36;7.30;96.10
21770;DHT22;11046;49.558;8.674;2022-11-21T16:07:38;7.30;96.20
21770;DHT22;11046;49.558;8.674;2022-11-21T16:10:39;7.30;96.20
21770;DHT22;11046;49.558;8.674;2022-11-21T16:13:40;7.30;96.20
21770;DHT22;11046;49.558;8.674;2022-11-21T16:16:42;7.20;96.20
21770;DHT22;11046;49.558;8.674;2022-11-21T16:19:42;7.20;96.20
21770;DHT22;11046;49.558;8.674;2022-11-21T16:22:44;7.20;96.30
21770;DHT22;11046;49.558;8.674;2022-11-21T16:25:52;7.20;96.20
21770;DHT22;11046;49.558;8.674;2022-11-21T16:28:57;7.20;96.20
21770;DHT22;11046;49.558;8.674;2022-11-21T16:31:58;7.20;96.20
21770;DHT22;11046;49.558;8.674;2022-11-21T16:34:59;7.10;96.20
21770;DHT22;11046;49.558;8.674;2022-11-21T16:37:59;7.10;96.20
21770;DHT22;11046;49.558;8.674;2022-11-21T16:41:02;7.10;96.30
21770;DHT22;11046;49.558;8.674;2022-11-21T16:44:11;7.10;96.30
21770;DHT22;11046;49.558;8.674;2022-11-21T16:47:13;7.00;96.30
21770;DHT22;11046;49.558;8.674;2022-11-21T16:50:14;7.00;96.30
21770;DHT22;11046;49.558;8.674;2022-11-21T16:53:15;7.00;96.30
21770;DHT22;11046;49.558;8.674;2022-11-21T16:56:16;7.00;96.40
21770;DHT22;11046;49.558;8.674;2022-11-21T16:59:17;7.00;96.40
21770;DHT22;11046;49.558;8.674;2022-11-21T17:02:17;7.00;96.40
21770;DHT22;11046;49.558;8.674;2022-11-21T17:05:19;6.90;96.80
21770;DHT22;11046;49.558;8.674;2022-11-21T17:08:20;6.90;96.40
21770;DHT22;11046;49.558;8.674;2022-11-21T17:11:23;6.90;96.50
21770;DHT22;11046;49.558;8.674;2022-11-21T17:14:28;6.80;96.50
21770;DHT22;11046;49.558;8.674;2022-11-21T17:17:30;6.80;96.60
21770;DHT22;11046;49.558;8.674;2022-11-21T17:20:30;6.80;96.70
21770;DHT22;11046;49.558;8.674;2022-11-21T17:23:31;6.80;96.60
21770;DHT22;11046;49.558;8.674;2022-11-21T17:26:35;6.80;96.60
21770;DHT22;11046;49.558;8.674;2022-11-21T17:29:37;6.80;96.60
21770;DHT22;11046;49.558;8.674;2022-11-21T17:32:37;6.80;96.50
21770;DHT22;11046;49.558;8.674;2022-11-21T17:35:38;6.90;96.50
21770;DHT22;11046;49.558;8.674;2022-11-21T17:38:39;6.90;96.50
21770;DHT22;11046;49.558;8.674;2022-11-21T17:41:40;6.80;96.40
21770;DHT22;11046;49.558;8.674;2022-11-21T17:44:40;6.80;96.40
21770;DHT22;11046;49.558;8.674;2022-11-21T17:47:41;6.80;96.40
21770;DHT22;11046;49.558;8.674;2022-11-21T17:50:43;6.80;96.50
21770;DHT22;11046;49.558;8.674;2022-11-21T17:53:45;6.70;96.40
21770;DHT22;11046;49.558;8.674;2022-11-21T17:56:46;6.70;96.40
21770;DHT22;11046;49.558;8.674;2022-11-21T17:59:47;6.70;96.50
21770;DHT22;11046;49.558;8.674;2022-11-21T18:02:48;6.70;96.50
21770;DHT22;11046;49.558;8.674;2022-11-21T18:06:02;6.80;96.40
21770;DHT22;11046;49.558;8.674;2022-11-21T18:09:04;6.80;96.30
21770;DHT22;11046;49.558;8.674;2022-11-21T18:12:05;6.80;96.30
21770;DHT22;11046;49.558;8.674;2022-11-21T18:15:06;6.80;96.20
21770;DHT22;11046;49.558;8.674;2022-11-21T18:18:07;6.80;96.20
21770;DHT22;11046;49.558;8.674;2022-11-21T18:21:10;6.70;96.20
21770;DHT22;11046;49.558;8.674;2022-11-21T18:24:10;6.70;96.20
21770;DHT22;11046;49.558;8.674;2022-11-21T18:27:11;6.70;96.10
21770;DHT22;11046;49.558;8.674;2022-11-21T18:30:12;6.70;96.10
21770;DHT22;11046;49.558;8.674;2022-11-21T18:33:12;6.80;96.00
21770;DHT22;11046;49.558;8.674;2022-11-21T18:36:14;6.80;96.00
21770;DHT22;11046;49.558;8.674;2022-11-21T18:39:15;6.80;96.00
21770;DHT22;11046;49.558;8.674;2022-11-21T18:42:15;6.90;95.90
21770;DHT22;11046;49.558;8.674;2022-11-21T18:45:16;6.90;95.80
21770;DHT22;11046;49.558;8.674;2022-11-21T18:48:17;6.90;95.80
21770;DHT22;11046;49.558;8.674;2022-11-21T18:51:19;7.00;95.80
21770;DHT22;11046;49.558;8.674;2022-11-21T18:54:20;6.90;95.70
21770;DHT22;11046;49.558;8.674;2022-11-21T18:57:20;6.90;95.70
21770;DHT22;11046;49.558;8.674;2022-11-21T19:00:21;6.90;95.80
21770;DHT22;11046;49.558;8.674;2022-11-21T19:03:22;6.80;95.90
21770;DHT22;11046;49.558;8.674;2022-11-21T19:06:24;6.80;95.90
21770;DHT22;11046;49.558;8.674;2022-11-21T19:09:24;6.90;95.80
21770;DHT22;11046;49.558;8.674;2022-11-21T19:12:27;6.90;95.80
21770;DHT22;11046;49.558;8.674;2022-11-21T19:15:28;6.90;95.80
21770;DHT22;11046;49.558;8.674;2022-11-21T19:18:36;6.90;95.80
21770;DHT22;11046;49.558;8.674;2022-11-21T19:21:38;6.90;95.80
21770;DHT22;11046;49.558;8.674;2022-11-21T19:24:39;6.90;95.70
21770;DHT22;11046;49.558;8.674;2022-11-21T19:27:39;6.90;95.60
21770;DHT22;11046;49.558;8.674;2022-11-21T19:30:40;6.90;95.60
21770;DHT22;11046;49.558;8.674;2022-11-21T19:33:41;6.90;95.60
21770;DHT22;11046;49.558;8.674;2022-11-21T19:36:43;6.90;95.50
21770;DHT22;11046;49.558;8.674;2022-11-21T19:39:44;6.90;95.50
21770;DHT22;11046;49.558;8.674;2022-11-21T19:42:44;6.90;95.40
21770;DHT22;11046;49.558;8.674;2022-11-21T19:45:45;6.90;95.30
21770;DHT22;11046;49.558;8.674;2022-11-21T19:48:48;6.90;95.40
21770;DHT22;11046;49.558;8.674;2022-11-21T19:51:49;6.90;95.30
21770;DHT22;11046;49.558;8.674;2022-11-21T19:54:50;7.00;95.30
21770;DHT22;11046;49.558;8.674;2022-11-21T19:57:50;7.00;95.20
21770;DHT22;11046;49.558;8.674;2022-11-21T20:00:51;7.00;95.10
21770;DHT22;11046;49.558;8.674;2022-11-21T20:03:56;7.00;95.20
21770;DHT22;11046;49.558;8.674;2022-11-21T20:06:57;7.00;95.10
21770;DHT22;11046;49.558;8.674;2022-11-21T20:09:58;7.00;95.10
21770;DHT22;11046;49.558;8.674;2022-11-21T20:12:59;7.10;95.10
21770;DHT22;11046;49.558;8.674;2022-11-21T20:16:00;7.10;95.00
21770;DHT22;11046;49.558;8.674;2022-11-21T20:19:02;7.10;95.00
21770;DHT22;11046;49.558;8.674;2022-11-21T20:22:03;7.20;95.00
21770;DHT22;11046;49.558;8.674;2022-11-21T20:25:04;7.20;95.00
21770;DHT22;11046;49.558;8.674;2022-11-21T20:28:05;7.30;95.00
21770;DHT22;11046;49.558;8.674;2022-11-21T20:31:14;7.20;94.90
21770;DHT22;11046;49.558;8.674;2022-11-21T20:34:15;7.10;94.90
21770;DHT22;11046;49.558;8.674;2022-11-21T20:37:16;7.10;94.90
21770;DHT22;11046;49.558;8.674;2022-11-21T20:40:16;7.10;95.00
21770;DHT22;11046;49.558;8.674;2022-11-21T20:43:17;7.10;95.00
21770;DHT22;11046;49.558;8.674;2022-11-21T20:46:18;7.10;95.10